Terminal Aerodrome Forecast
Issued by NWS

Home | Current Version | Previous Version | Text Only | Print | Product List | Glossary On
Versions: 1 2 3 4 5 6 7 8 9 10 11 12 13 14 15 16
000
FTUS43 KTOP 070041 AAA
TAFMHK
TAF AMD
KMHK 070041Z 0701/0724 02008KT 5SM BR OVC021
     FM070300 03010KT 6SM BR OVC015
     FM070500 01010KT P6SM SCT015 BKN035
     FM071500 04009KT P6SM SCT100=

USA.gov is the U.S. government's official web portal to all federal, state and local government web resources and services.